sensor_id;sensor_type;location;lat;lon;timestamp;P1;durP1;ratioP1;P2;durP2;ratioP2
20375;SDS011;10347;51.828;6.466;2023-12-20T00:01:02;5.70;;;3.10;;
20375;SDS011;10347;51.828;6.466;2023-12-20T00:03:28;4.75;;;2.83;;
20375;SDS011;10347;51.828;6.466;2023-12-20T00:05:53;7.65;;;3.65;;
20375;SDS011;10347;51.828;6.466;2023-12-20T00:08:19;5.57;;;2.88;;
20375;SDS011;10347;51.828;6.466;2023-12-20T00:10:45;5.18;;;2.60;;
20375;SDS011;10347;51.828;6.466;2023-12-20T00:13:10;7.80;;;2.90;;
20375;SDS011;10347;51.828;6.466;2023-12-20T00:15:36;6.85;;;2.90;;
20375;SDS011;10347;51.828;6.466;2023-12-20T00:18:02;6.32;;;2.53;;
20375;SDS011;10347;51.828;6.466;2023-12-20T00:20:28;6.50;;;2.47;;
20375;SDS011;10347;51.828;6.466;2023-12-20T00:22:55;7.72;;;2.70;;
20375;SDS011;10347;51.828;6.466;2023-12-20T00:25:22;7.22;;;2.60;;
20375;SDS011;10347;51.828;6.466;2023-12-20T00:27:48;3.97;;;2.20;;
20375;SDS011;10347;51.828;6.466;2023-12-20T00:30:14;3.75;;;2.22;;
20375;SDS011;10347;51.828;6.466;2023-12-20T00:32:39;7.53;;;2.42;;
20375;SDS011;10347;51.828;6.466;2023-12-20T00:35:11;8.15;;;2.42;;
20375;SDS011;10347;51.828;6.466;2023-12-20T00:37:39;4.78;;;2.40;;
20375;SDS011;10347;51.828;6.466;2023-12-20T00:40:05;7.57;;;2.67;;
20375;SDS011;10347;51.828;6.466;2023-12-20T00:42:31;5.85;;;2.35;;
20375;SDS011;10347;51.828;6.466;2023-12-20T00:45:00;8.55;;;3.20;;
20375;SDS011;10347;51.828;6.466;2023-12-20T00:47:27;5.88;;;2.80;;
20375;SDS011;10347;51.828;6.466;2023-12-20T00:49:52;6.03;;;2.88;;
20375;SDS011;10347;51.828;6.466;2023-12-20T00:52:18;6.47;;;2.80;;
20375;SDS011;10347;51.828;6.466;2023-12-20T00:54:44;8.00;;;2.92;;
20375;SDS011;10347;51.828;6.466;2023-12-20T00:57:09;9.50;;;3.63;;
20375;SDS011;10347;51.828;6.466;2023-12-20T00:59:35;8.23;;;3.22;;
20375;SDS011;10347;51.828;6.466;2023-12-20T01:02:01;8.70;;;3.50;;
20375;SDS011;10347;51.828;6.466;2023-12-20T01:04:26;11.20;;;2.95;;
20375;SDS011;10347;51.828;6.466;2023-12-20T01:06:52;9.88;;;3.60;;
20375;SDS011;10347;51.828;6.466;2023-12-20T01:09:18;9.10;;;3.08;;
20375;SDS011;10347;51.828;6.466;2023-12-20T01:11:44;9.43;;;3.00;;
20375;SDS011;10347;51.828;6.466;2023-12-20T01:14:11;8.25;;;2.97;;
20375;SDS011;10347;51.828;6.466;2023-12-20T01:16:37;6.38;;;2.85;;
20375;SDS011;10347;51.828;6.466;2023-12-20T01:19:02;8.18;;;2.95;;
20375;SDS011;10347;51.828;6.466;2023-12-20T01:21:28;11.45;;;3.30;;
20375;SDS011;10347;51.828;6.466;2023-12-20T01:23:53;7.40;;;2.92;;
20375;SDS011;10347;51.828;6.466;2023-12-20T01:26:19;7.90;;;2.97;;
20375;SDS011;10347;51.828;6.466;2023-12-20T01:28:44;10.23;;;3.13;;
20375;SDS011;10347;51.828;6.466;2023-12-20T01:31:10;8.02;;;3.00;;
20375;SDS011;10347;51.828;6.466;2023-12-20T01:33:35;12.38;;;3.08;;
20375;SDS011;10347;51.828;6.466;2023-12-20T01:36:01;10.52;;;3.15;;
20375;SDS011;10347;51.828;6.466;2023-12-20T01:38:27;10.32;;;2.97;;
20375;SDS011;10347;51.828;6.466;2023-12-20T01:40:53;11.52;;;3.63;;
20375;SDS011;10347;51.828;6.466;2023-12-20T01:43:18;7.40;;;2.80;;
20375;SDS011;10347;51.828;6.466;2023-12-20T01:45:44;11.52;;;3.42;;
20375;SDS011;10347;51.828;6.466;2023-12-20T01:48:09;8.30;;;2.72;;
20375;SDS011;10347;51.828;6.466;2023-12-20T01:50:36;17.63;;;3.38;;
20375;SDS011;10347;51.828;6.466;2023-12-20T01:53:03;8.77;;;3.00;;
20375;SDS011;10347;51.828;6.466;2023-12-20T01:55:31;13.73;;;3.00;;
20375;SDS011;10347;51.828;6.466;2023-12-20T01:57:59;8.63;;;2.88;;
20375;SDS011;10347;51.828;6.466;2023-12-20T02:00:26;8.07;;;2.65;;
20375;SDS011;10347;51.828;6.466;2023-12-20T02:02:54;13.40;;;2.65;;
20375;SDS011;10347;51.828;6.466;2023-12-20T02:05:20;13.40;;;3.53;;
20375;SDS011;10347;51.828;6.466;2023-12-20T02:07:47;14.45;;;3.35;;
20375;SDS011;10347;51.828;6.466;2023-12-20T02:10:12;7.65;;;2.70;;
20375;SDS011;10347;51.828;6.466;2023-12-20T02:12:38;11.32;;;2.67;;
20375;SDS011;10347;51.828;6.466;2023-12-20T02:15:05;8.73;;;2.92;;
20375;SDS011;10347;51.828;6.466;2023-12-20T02:17:32;13.02;;;3.15;;
20375;SDS011;10347;51.828;6.466;2023-12-20T02:19:58;9.02;;;2.88;;
20375;SDS011;10347;51.828;6.466;2023-12-20T02:22:24;8.43;;;2.67;;
20375;SDS011;10347;51.828;6.466;2023-12-20T02:24:49;9.55;;;3.60;;
20375;SDS011;10347;51.828;6.466;2023-12-20T02:27:15;9.60;;;3.03;;
20375;SDS011;10347;51.828;6.466;2023-12-20T02:29:44;12.57;;;3.03;;
20375;SDS011;10347;51.828;6.466;2023-12-20T02:32:12;15.13;;;3.22;;
20375;SDS011;10347;51.828;6.466;2023-12-20T02:34:37;8.80;;;2.75;;
20375;SDS011;10347;51.828;6.466;2023-12-20T02:37:03;12.23;;;3.13;;
20375;SDS011;10347;51.828;6.466;2023-12-20T02:39:28;10.80;;;2.90;;
20375;SDS011;10347;51.828;6.466;2023-12-20T02:41:55;10.65;;;3.03;;
20375;SDS011;10347;51.828;6.466;2023-12-20T02:44:20;11.13;;;2.95;;
20375;SDS011;10347;51.828;6.466;2023-12-20T02:46:46;9.57;;;2.75;;
20375;SDS011;10347;51.828;6.466;2023-12-20T02:49:11;8.95;;;2.85;;
20375;SDS011;10347;51.828;6.466;2023-12-20T02:51:37;9.18;;;3.05;;
20375;SDS011;10347;51.828;6.466;2023-12-20T02:54:05;12.13;;;3.40;;
20375;SDS011;10347;51.828;6.466;2023-12-20T02:56:32;7.43;;;2.80;;
20375;SDS011;10347;51.828;6.466;2023-12-20T02:58:58;8.77;;;2.88;;
20375;SDS011;10347;51.828;6.466;2023-12-20T03:01:23;10.95;;;3.03;;
20375;SDS011;10347;51.828;6.466;2023-12-20T03:03:49;12.52;;;3.30;;
20375;SDS011;10347;51.828;6.466;2023-12-20T03:06:18;8.60;;;3.00;;
20375;SDS011;10347;51.828;6.466;2023-12-20T03:08:44;6.88;;;3.15;;
20375;SDS011;10347;51.828;6.466;2023-12-20T03:11:10;12.45;;;3.63;;
20375;SDS011;10347;51.828;6.466;2023-12-20T03:13:36;11.88;;;3.65;;
20375;SDS011;10347;51.828;6.466;2023-12-20T03:16:07;9.77;;;3.47;;
20375;SDS011;10347;51.828;6.466;2023-12-20T03:18:36;12.75;;;3.80;;
20375;SDS011;10347;51.828;6.466;2023-12-20T03:21:01;15.27;;;4.15;;
20375;SDS011;10347;51.828;6.466;2023-12-20T03:23:27;13.10;;;4.35;;
20375;SDS011;10347;51.828;6.466;2023-12-20T03:25:55;13.38;;;3.70;;
20375;SDS011;10347;51.828;6.466;2023-12-20T03:28:21;16.70;;;4.10;;
20375;SDS011;10347;51.828;6.466;2023-12-20T03:30:48;17.98;;;5.20;;
20375;SDS011;10347;51.828;6.466;2023-12-20T03:33:13;10.90;;;3.80;;
20375;SDS011;10347;51.828;6.466;2023-12-20T03:35:39;13.90;;;4.15;;
20375;SDS011;10347;51.828;6.466;2023-12-20T03:38:04;14.73;;;3.70;;
20375;SDS011;10347;51.828;6.466;2023-12-20T03:40:30;10.40;;;4.00;;
20375;SDS011;10347;51.828;6.466;2023-12-20T03:42:55;13.75;;;3.95;;
20375;SDS011;10347;51.828;6.466;2023-12-20T03:45:21;15.25;;;3.63;;
20375;SDS011;10347;51.828;6.466;2023-12-20T03:47:47;10.48;;;3.20;;
20375;SDS011;10347;51.828;6.466;2023-12-20T03:50:13;19.17;;;3.40;;
20375;SDS011;10347;51.828;6.466;2023-12-20T03:52:39;16.63;;;3.90;;
20375;SDS011;10347;51.828;6.466;2023-12-20T03:55:04;10.18;;;3.35;;
20375;SDS011;10347;51.828;6.466;2023-12-20T03:57:30;10.18;;;3.35;;
20375;SDS011;10347;51.828;6.466;2023-12-20T03:59:56;15.52;;;3.67;;
20375;SDS011;10347;51.828;6.466;2023-12-20T04:02:21;17.10;;;3.92;;
20375;SDS011;10347;51.828;6.466;2023-12-20T04:04:47;12.93;;;3.15;;
20375;SDS011;10347;51.828;6.466;2023-12-20T04:07:12;11.85;;;3.17;;
20375;SDS011;10347;51.828;6.466;2023-12-20T04:09:38;12.18;;;3.50;;
20375;SDS011;10347;51.828;6.466;2023-12-20T04:12:03;18.20;;;4.22;;
20375;SDS011;10347;51.828;6.466;2023-12-20T04:14:30;13.00;;;3.30;;
20375;SDS011;10347;51.828;6.466;2023-12-20T04:16:56;8.25;;;2.95;;
20375;SDS011;10347;51.828;6.466;2023-12-20T04:19:21;15.40;;;3.95;;
20375;SDS011;10347;51.828;6.466;2023-12-20T04:21:47;13.25;;;3.50;;
20375;SDS011;10347;51.828;6.466;2023-12-20T04:24:13;12.82;;;3.45;;
20375;SDS011;10347;51.828;6.466;2023-12-20T04:26:38;9.38;;;2.97;;
20375;SDS011;10347;51.828;6.466;2023-12-20T04:29:04;13.73;;;3.53;;
20375;SDS011;10347;51.828;6.466;2023-12-20T04:31:29;13.18;;;3.10;;
20375;SDS011;10347;51.828;6.466;2023-12-20T04:33:55;13.45;;;3.20;;
20375;SDS011;10347;51.828;6.466;2023-12-20T04:36:20;10.10;;;3.05;;
20375;SDS011;10347;51.828;6.466;2023-12-20T04:38:46;15.15;;;3.60;;
20375;SDS011;10347;51.828;6.466;2023-12-20T04:41:11;11.70;;;3.00;;
20375;SDS011;10347;51.828;6.466;2023-12-20T04:43:40;11.27;;;3.33;;
20375;SDS011;10347;51.828;6.466;2023-12-20T04:46:06;13.13;;;3.40;;
20375;SDS011;10347;51.828;6.466;2023-12-20T04:48:31;14.35;;;3.08;;
20375;SDS011;10347;51.828;6.466;2023-12-20T04:50:57;12.32;;;3.33;;
20375;SDS011;10347;51.828;6.466;2023-12-20T04:53:22;16.92;;;3.72;;
20375;SDS011;10347;51.828;6.466;2023-12-20T04:55:48;13.77;;;3.25;;
20375;SDS011;10347;51.828;6.466;2023-12-20T04:58:13;15.02;;;4.28;;
20375;SDS011;10347;51.828;6.466;2023-12-20T05:00:39;12.10;;;3.65;;
20375;SDS011;10347;51.828;6.466;2023-12-20T05:03:05;14.65;;;3.35;;
20375;SDS011;10347;51.828;6.466;2023-12-20T05:05:30;11.32;;;3.50;;
20375;SDS011;10347;51.828;6.466;2023-12-20T05:07:56;12.02;;;3.40;;
20375;SDS011;10347;51.828;6.466;2023-12-20T05:10:22;14.55;;;3.45;;
20375;SDS011;10347;51.828;6.466;2023-12-20T05:12:47;13.88;;;3.60;;
20375;SDS011;10347;51.828;6.466;2023-12-20T05:15:13;11.02;;;3.13;;
20375;SDS011;10347;51.828;6.466;2023-12-20T05:17:38;13.05;;;3.40;;
20375;SDS011;10347;51.828;6.466;2023-12-20T05:20:04;12.63;;;3.30;;
20375;SDS011;10347;51.828;6.466;2023-12-20T05:22:31;16.95;;;3.75;;
20375;SDS011;10347;51.828;6.466;2023-12-20T05:24:56;9.48;;;3.83;;
20375;SDS011;10347;51.828;6.466;2023-12-20T05:27:22;19.75;;;4.45;;
20375;SDS011;10347;51.828;6.466;2023-12-20T05:29:47;14.63;;;3.83;;
20375;SDS011;10347;51.828;6.466;2023-12-20T05:32:13;16.65;;;4.28;;
20375;SDS011;10347;51.828;6.466;2023-12-20T05:34:38;17.13;;;3.80;;
20375;SDS011;10347;51.828;6.466;2023-12-20T05:37:04;14.20;;;3.55;;
20375;SDS011;10347;51.828;6.466;2023-12-20T05:39:29;10.00;;;3.35;;
20375;SDS011;10347;51.828;6.466;2023-12-20T05:41:55;12.20;;;3.80;;
20375;SDS011;10347;51.828;6.466;2023-12-20T05:44:21;14.60;;;3.58;;
20375;SDS011;10347;51.828;6.466;2023-12-20T05:46:47;14.43;;;3.72;;
20375;SDS011;10347;51.828;6.466;2023-12-20T05:49:12;14.07;;;3.60;;
20375;SDS011;10347;51.828;6.466;2023-12-20T05:51:38;23.45;;;4.30;;
20375;SDS011;10347;51.828;6.466;2023-12-20T05:54:04;18.08;;;4.18;;
20375;SDS011;10347;51.828;6.466;2023-12-20T05:56:30;13.95;;;4.13;;
20375;SDS011;10347;51.828;6.466;2023-12-20T05:58:55;10.52;;;3.40;;
20375;SDS011;10347;51.828;6.466;2023-12-20T06:01:21;17.52;;;4.05;;
20375;SDS011;10347;51.828;6.466;2023-12-20T06:03:46;18.05;;;4.18;;
20375;SDS011;10347;51.828;6.466;2023-12-20T06:06:12;22.83;;;4.70;;
20375;SDS011;10347;51.828;6.466;2023-12-20T06:08:40;14.00;;;3.67;;
20375;SDS011;10347;51.828;6.466;2023-12-20T06:11:06;15.80;;;3.97;;
20375;SDS011;10347;51.828;6.466;2023-12-20T06:13:31;19.90;;;4.47;;
20375;SDS011;10347;51.828;6.466;2023-12-20T06:15:57;18.13;;;4.30;;
20375;SDS011;10347;51.828;6.466;2023-12-20T06:18:23;11.38;;;3.67;;
20375;SDS011;10347;51.828;6.466;2023-12-20T06:20:49;20.05;;;4.40;;
20375;SDS011;10347;51.828;6.466;2023-12-20T06:23:14;15.02;;;4.40;;
20375;SDS011;10347;51.828;6.466;2023-12-20T06:25:40;16.75;;;4.18;;
20375;SDS011;10347;51.828;6.466;2023-12-20T06:28:06;12.95;;;3.47;;
20375;SDS011;10347;51.828;6.466;2023-12-20T06:30:31;13.50;;;3.35;;
20375;SDS011;10347;51.828;6.466;2023-12-20T06:32:58;14.20;;;3.60;;
20375;SDS011;10347;51.828;6.466;2023-12-20T06:35:23;19.63;;;4.07;;
20375;SDS011;10347;51.828;6.466;2023-12-20T06:37:49;18.80;;;4.35;;
20375;SDS011;10347;51.828;6.466;2023-12-20T06:40:15;16.92;;;3.90;;
20375;SDS011;10347;51.828;6.466;2023-12-20T06:42:41;12.38;;;3.45;;
20375;SDS011;10347;51.828;6.466;2023-12-20T06:45:07;16.27;;;4.05;;
20375;SDS011;10347;51.828;6.466;2023-12-20T06:47:32;14.85;;;3.42;;
20375;SDS011;10347;51.828;6.466;2023-12-20T06:49:58;14.07;;;3.20;;
20375;SDS011;10347;51.828;6.466;2023-12-20T06:52:24;18.40;;;4.05;;
20375;SDS011;10347;51.828;6.466;2023-12-20T06:54:49;16.15;;;3.47;;
20375;SDS011;10347;51.828;6.466;2023-12-20T06:57:15;17.58;;;3.63;;
20375;SDS011;10347;51.828;6.466;2023-12-20T06:59:41;19.27;;;4.22;;
20375;SDS011;10347;51.828;6.466;2023-12-20T07:02:08;18.00;;;3.75;;
20375;SDS011;10347;51.828;6.466;2023-12-20T07:04:34;13.18;;;3.53;;
20375;SDS011;10347;51.828;6.466;2023-12-20T07:07:03;17.92;;;4.22;;
20375;SDS011;10347;51.828;6.466;2023-12-20T07:09:29;22.52;;;4.20;;
20375;SDS011;10347;51.828;6.466;2023-12-20T07:11:54;18.20;;;4.00;;
20375;SDS011;10347;51.828;6.466;2023-12-20T07:14:20;12.70;;;3.72;;
20375;SDS011;10347;51.828;6.466;2023-12-20T07:16:45;16.65;;;4.00;;
20375;SDS011;10347;51.828;6.466;2023-12-20T07:19:11;11.93;;;3.83;;
20375;SDS011;10347;51.828;6.466;2023-12-20T07:21:36;16.63;;;4.63;;
20375;SDS011;10347;51.828;6.466;2023-12-20T07:24:02;15.60;;;3.67;;
20375;SDS011;10347;51.828;6.466;2023-12-20T07:26:27;14.63;;;3.65;;
20375;SDS011;10347;51.828;6.466;2023-12-20T07:28:53;17.35;;;4.07;;
20375;SDS011;10347;51.828;6.466;2023-12-20T07:31:18;18.30;;;4.05;;
20375;SDS011;10347;51.828;6.466;2023-12-20T07:33:44;13.80;;;3.72;;
20375;SDS011;10347;51.828;6.466;2023-12-20T07:36:10;13.68;;;3.92;;
20375;SDS011;10347;51.828;6.466;2023-12-20T07:38:36;18.13;;;4.10;;
20375;SDS011;10347;51.828;6.466;2023-12-20T07:41:02;10.10;;;4.18;;
20375;SDS011;10347;51.828;6.466;2023-12-20T07:43:27;12.43;;;4.00;;
20375;SDS011;10347;51.828;6.466;2023-12-20T07:45:53;17.80;;;4.32;;
20375;SDS011;10347;51.828;6.466;2023-12-20T07:48:19;18.63;;;4.18;;
20375;SDS011;10347;51.828;6.466;2023-12-20T07:50:44;18.85;;;4.97;;
20375;SDS011;10347;51.828;6.466;2023-12-20T07:53:10;20.58;;;5.15;;
20375;SDS011;10347;51.828;6.466;2023-12-20T07:55:35;17.90;;;4.35;;
20375;SDS011;10347;51.828;6.466;2023-12-20T07:58:01;14.25;;;4.40;;
20375;SDS011;10347;51.828;6.466;2023-12-20T08:00:27;21.17;;;5.03;;
20375;SDS011;10347;51.828;6.466;2023-12-20T08:02:52;14.75;;;4.30;;
20375;SDS011;10347;51.828;6.466;2023-12-20T08:05:18;19.05;;;4.53;;
20375;SDS011;10347;51.828;6.466;2023-12-20T08:07:43;19.38;;;4.32;;
20375;SDS011;10347;51.828;6.466;2023-12-20T08:10:09;21.63;;;4.18;;
20375;SDS011;10347;51.828;6.466;2023-12-20T08:12:35;18.45;;;4.82;;
20375;SDS011;10347;51.828;6.466;2023-12-20T08:15:01;22.02;;;4.15;;
20375;SDS011;10347;51.828;6.466;2023-12-20T08:17:27;20.55;;;4.65;;
20375;SDS011;10347;51.828;6.466;2023-12-20T08:19:52;17.05;;;5.10;;
20375;SDS011;10347;51.828;6.466;2023-12-20T08:22:18;14.73;;;4.40;;
20375;SDS011;10347;51.828;6.466;2023-12-20T08:24:43;14.95;;;4.50;;
20375;SDS011;10347;51.828;6.466;2023-12-20T08:27:09;21.80;;;4.75;;
20375;SDS011;10347;51.828;6.466;2023-12-20T08:29:34;19.98;;;4.38;;
20375;SDS011;10347;51.828;6.466;2023-12-20T08:32:00;14.55;;;4.18;;
20375;SDS011;10347;51.828;6.466;2023-12-20T08:34:26;17.48;;;4.13;;
20375;SDS011;10347;51.828;6.466;2023-12-20T08:36:52;11.60;;;4.03;;
20375;SDS011;10347;51.828;6.466;2023-12-20T08:39:17;20.35;;;4.43;;
20375;SDS011;10347;51.828;6.466;2023-12-20T08:41:43;14.98;;;4.57;;
20375;SDS011;10347;51.828;6.466;2023-12-20T08:44:09;26.85;;;4.88;;
20375;SDS011;10347;51.828;6.466;2023-12-20T08:46:35;19.13;;;4.70;;
20375;SDS011;10347;51.828;6.466;2023-12-20T08:49:01;19.25;;;4.75;;
20375;SDS011;10347;51.828;6.466;2023-12-20T08:51:27;14.00;;;4.03;;
20375;SDS011;10347;51.828;6.466;2023-12-20T08:53:53;16.42;;;4.20;;
20375;SDS011;10347;51.828;6.466;2023-12-20T08:56:18;16.30;;;4.18;;
20375;SDS011;10347;51.828;6.466;2023-12-20T08:58:45;16.35;;;4.65;;
20375;SDS011;10347;51.828;6.466;2023-12-20T09:01:11;15.05;;;4.38;;
20375;SDS011;10347;51.828;6.466;2023-12-20T09:03:37;12.63;;;4.50;;
20375;SDS011;10347;51.828;6.466;2023-12-20T09:06:04;18.33;;;4.45;;
20375;SDS011;10347;51.828;6.466;2023-12-20T09:08:30;18.10;;;4.07;;
20375;SDS011;10347;51.828;6.466;2023-12-20T09:10:56;19.60;;;4.30;;
20375;SDS011;10347;51.828;6.466;2023-12-20T09:13:21;19.95;;;4.45;;
20375;SDS011;10347;51.828;6.466;2023-12-20T09:15:51;21.35;;;4.75;;
20375;SDS011;10347;51.828;6.466;2023-12-20T09:18:17;15.75;;;4.40;;
20375;SDS011;10347;51.828;6.466;2023-12-20T09:20:42;19.55;;;4.43;;
20375;SDS011;10347;51.828;6.466;2023-12-20T09:23:08;17.75;;;3.70;;
20375;SDS011;10347;51.828;6.466;2023-12-20T09:25:33;17.30;;;4.20;;
20375;SDS011;10347;51.828;6.466;2023-12-20T09:27:59;14.35;;;4.22;;
20375;SDS011;10347;51.828;6.466;2023-12-20T09:30:24;13.13;;;4.05;;
20375;SDS011;10347;51.828;6.466;2023-12-20T09:32:50;17.48;;;3.95;;
20375;SDS011;10347;51.828;6.466;2023-12-20T09:35:15;17.83;;;4.03;;
20375;SDS011;10347;51.828;6.466;2023-12-20T09:37:41;20.80;;;4.47;;
20375;SDS011;10347;51.828;6.466;2023-12-20T09:40:10;18.30;;;3.90;;
20375;SDS011;10347;51.828;6.466;2023-12-20T09:42:40;16.90;;;4.07;;
20375;SDS011;10347;51.828;6.466;2023-12-20T09:45:20;22.33;;;4.78;;
20375;SDS011;10347;51.828;6.466;2023-12-20T09:47:50;19.30;;;3.97;;
20375;SDS011;10347;51.828;6.466;2023-12-20T09:50:17;19.00;;;3.88;;
20375;SDS011;10347;51.828;6.466;2023-12-20T09:52:44;19.27;;;4.78;;
20375;SDS011;10347;51.828;6.466;2023-12-20T09:55:18;16.90;;;3.88;;
20375;SDS011;10347;51.828;6.466;2023-12-20T09:57:45;20.08;;;4.38;;
20375;SDS011;10347;51.828;6.466;2023-12-20T10:00:11;22.15;;;5.05;;
20375;SDS011;10347;51.828;6.466;2023-12-20T10:02:38;23.83;;;5.25;;
20375;SDS011;10347;51.828;6.466;2023-12-20T10:05:34;23.42;;;3.97;;
20375;SDS011;10347;51.828;6.466;2023-12-20T10:08:00;18.48;;;4.55;;
20375;SDS011;10347;51.828;6.466;2023-12-20T10:10:26;13.52;;;3.90;;
20375;SDS011;10347;51.828;6.466;2023-12-20T10:13:09;19.65;;;4.70;;
20375;SDS011;10347;51.828;6.466;2023-12-20T10:15:36;19.30;;;4.03;;
20375;SDS011;10347;51.828;6.466;2023-12-20T10:18:02;17.10;;;4.25;;
20375;SDS011;10347;51.828;6.466;2023-12-20T10:20:28;25.58;;;4.72;;
20375;SDS011;10347;51.828;6.466;2023-12-20T10:22:55;20.35;;;6.13;;
20375;SDS011;10347;51.828;6.466;2023-12-20T10:25:22;21.05;;;4.72;;
20375;SDS011;10347;51.828;6.466;2023-12-20T10:27:49;18.55;;;4.45;;
20375;SDS011;10347;51.828;6.466;2023-12-20T10:30:15;17.67;;;5.50;;
20375;SDS011;10347;51.828;6.466;2023-12-20T10:32:40;19.00;;;4.22;;
20375;SDS011;10347;51.828;6.466;2023-12-20T10:35:06;18.85;;;4.43;;
20375;SDS011;10347;51.828;6.466;2023-12-20T10:37:39;15.18;;;4.15;;
20375;SDS011;10347;51.828;6.466;2023-12-20T10:40:05;19.45;;;4.70;;
20375;SDS011;10347;51.828;6.466;2023-12-20T10:42:31;17.60;;;3.83;;
20375;SDS011;10347;51.828;6.466;2023-12-20T10:44:59;14.77;;;4.05;;
20375;SDS011;10347;51.828;6.466;2023-12-20T10:47:25;15.57;;;4.03;;
20375;SDS011;10347;51.828;6.466;2023-12-20T10:49:51;14.43;;;4.20;;
20375;SDS011;10347;51.828;6.466;2023-12-20T10:52:18;17.92;;;4.55;;
20375;SDS011;10347;51.828;6.466;2023-12-20T10:54:45;14.18;;;3.55;;
20375;SDS011;10347;51.828;6.466;2023-12-20T10:57:11;19.00;;;4.55;;
20375;SDS011;10347;51.828;6.466;2023-12-20T10:59:37;19.73;;;4.63;;
20375;SDS011;10347;51.828;6.466;2023-12-20T11:02:04;21.45;;;4.35;;
20375;SDS011;10347;51.828;6.466;2023-12-20T11:04:37;21.95;;;7.85;;
20375;SDS011;10347;51.828;6.466;2023-12-20T11:07:33;30.48;;;10.15;;
20375;SDS011;10347;51.828;6.466;2023-12-20T11:10:14;19.52;;;5.65;;
20375;SDS011;10347;51.828;6.466;2023-12-20T11:12:57;17.20;;;7.03;;
20375;SDS011;10347;51.828;6.466;2023-12-20T11:15:34;12.80;;;5.30;;
20375;SDS011;10347;51.828;6.466;2023-12-20T11:18:00;22.55;;;6.75;;
20375;SDS011;10347;51.828;6.466;2023-12-20T11:20:39;16.10;;;5.53;;
20375;SDS011;10347;51.828;6.466;2023-12-20T11:23:06;16.42;;;4.47;;
20375;SDS011;10347;51.828;6.466;2023-12-20T11:25:52;17.98;;;4.05;;
20375;SDS011;10347;51.828;6.466;2023-12-20T11:28:22;16.88;;;4.15;;
20375;SDS011;10347;51.828;6.466;2023-12-20T11:33:22;18.58;;;4.30;;
20375;SDS011;10347;51.828;6.466;2023-12-20T11:35:49;18.83;;;5.20;;
20375;SDS011;10347;51.828;6.466;2023-12-20T11:38:15;14.82;;;4.32;;
20375;SDS011;10347;51.828;6.466;2023-12-20T11:40:42;20.00;;;4.93;;
20375;SDS011;10347;51.828;6.466;2023-12-20T11:43:08;16.83;;;5.25;;
20375;SDS011;10347;51.828;6.466;2023-12-20T11:45:34;12.65;;;4.15;;
20375;SDS011;10347;51.828;6.466;2023-12-20T11:48:00;19.10;;;4.35;;
20375;SDS011;10347;51.828;6.466;2023-12-20T11:50:27;13.90;;;3.63;;
20375;SDS011;10347;51.828;6.466;2023-12-20T11:52:54;21.30;;;5.18;;
20375;SDS011;10347;51.828;6.466;2023-12-20T11:55:21;17.73;;;4.50;;
20375;SDS011;10347;51.828;6.466;2023-12-20T11:57:46;12.18;;;3.85;;
20375;SDS011;10347;51.828;6.466;2023-12-20T12:00:13;15.57;;;4.05;;
20375;SDS011;10347;51.828;6.466;2023-12-20T12:02:39;13.35;;;3.85;;
20375;SDS011;10347;51.828;6.466;2023-12-20T12:05:05;20.40;;;4.07;;
20375;SDS011;10347;51.828;6.466;2023-12-20T12:07:31;13.07;;;3.97;;
20375;SDS011;10347;51.828;6.466;2023-12-20T12:09:57;18.67;;;4.22;;
20375;SDS011;10347;51.828;6.466;2023-12-20T12:12:23;13.43;;;4.50;;
20375;SDS011;10347;51.828;6.466;2023-12-20T12:14:50;15.88;;;4.00;;
20375;SDS011;10347;51.828;6.466;2023-12-20T12:17:16;13.52;;;4.30;;
20375;SDS011;10347;51.828;6.466;2023-12-20T12:19:42;14.77;;;3.80;;
20375;SDS011;10347;51.828;6.466;2023-12-20T12:22:09;21.77;;;4.45;;
20375;SDS011;10347;51.828;6.466;2023-12-20T12:24:48;15.60;;;3.85;;
20375;SDS011;10347;51.828;6.466;2023-12-20T12:27:14;22.65;;;4.53;;
20375;SDS011;10347;51.828;6.466;2023-12-20T12:29:40;14.77;;;3.85;;
20375;SDS011;10347;51.828;6.466;2023-12-20T12:32:24;15.85;;;3.67;;
20375;SDS011;10347;51.828;6.466;2023-12-20T12:34:50;13.88;;;3.55;;
20375;SDS011;10347;51.828;6.466;2023-12-20T12:37:16;15.15;;;4.10;;
20375;SDS011;10347;51.828;6.466;2023-12-20T12:39:41;22.02;;;4.32;;
20375;SDS011;10347;51.828;6.466;2023-12-20T12:42:07;15.68;;;4.28;;
20375;SDS011;10347;51.828;6.466;2023-12-20T12:44:32;17.45;;;3.85;;
20375;SDS011;10347;51.828;6.466;2023-12-20T12:46:58;17.80;;;3.90;;
20375;SDS011;10347;51.828;6.466;2023-12-20T12:49:24;17.65;;;3.97;;
20375;SDS011;10347;51.828;6.466;2023-12-20T12:51:49;14.20;;;4.05;;
20375;SDS011;10347;51.828;6.466;2023-12-20T12:54:16;12.32;;;3.58;;
20375;SDS011;10347;51.828;6.466;2023-12-20T12:56:42;10.07;;;3.60;;
20375;SDS011;10347;51.828;6.466;2023-12-20T12:59:09;15.25;;;3.78;;
20375;SDS011;10347;51.828;6.466;2023-12-20T13:01:34;20.98;;;4.10;;
20375;SDS011;10347;51.828;6.466;2023-12-20T13:04:00;13.55;;;4.00;;
20375;SDS011;10347;51.828;6.466;2023-12-20T13:06:28;12.68;;;3.55;;
20375;SDS011;10347;51.828;6.466;2023-12-20T13:08:54;16.02;;;3.60;;
20375;SDS011;10347;51.828;6.466;2023-12-20T13:11:20;12.35;;;3.20;;
20375;SDS011;10347;51.828;6.466;2023-12-20T13:13:45;12.38;;;3.40;;
20375;SDS011;10347;51.828;6.466;2023-12-20T13:16:11;14.57;;;4.28;;
20375;SDS011;10347;51.828;6.466;2023-12-20T13:18:37;18.10;;;3.63;;
20375;SDS011;10347;51.828;6.466;2023-12-20T13:21:07;19.40;;;4.05;;
20375;SDS011;10347;51.828;6.466;2023-12-20T13:23:32;15.10;;;3.75;;
20375;SDS011;10347;51.828;6.466;2023-12-20T13:25:58;18.63;;;4.47;;
20375;SDS011;10347;51.828;6.466;2023-12-20T13:28:23;17.40;;;3.80;;
20375;SDS011;10347;51.828;6.466;2023-12-20T13:30:49;14.57;;;4.00;;
20375;SDS011;10347;51.828;6.466;2023-12-20T13:33:15;13.45;;;3.70;;
20375;SDS011;10347;51.828;6.466;2023-12-20T13:35:40;12.75;;;3.92;;
20375;SDS011;10347;51.828;6.466;2023-12-20T13:38:06;10.57;;;3.35;;
20375;SDS011;10347;51.828;6.466;2023-12-20T13:40:32;13.60;;;3.38;;
20375;SDS011;10347;51.828;6.466;2023-12-20T13:42:58;20.05;;;4.05;;
20375;SDS011;10347;51.828;6.466;2023-12-20T13:45:23;18.80;;;4.28;;
20375;SDS011;10347;51.828;6.466;2023-12-20T13:47:50;13.68;;;3.92;;
20375;SDS011;10347;51.828;6.466;2023-12-20T13:50:15;15.88;;;4.38;;
20375;SDS011;10347;51.828;6.466;2023-12-20T13:52:41;13.07;;;3.45;;
20375;SDS011;10347;51.828;6.466;2023-12-20T13:55:07;19.58;;;4.00;;
20375;SDS011;10347;51.828;6.466;2023-12-20T13:57:33;17.23;;;4.05;;
20375;SDS011;10347;51.828;6.466;2023-12-20T13:59:58;23.77;;;4.72;;
20375;SDS011;10347;51.828;6.466;2023-12-20T14:02:24;9.82;;;3.42;;
20375;SDS011;10347;51.828;6.466;2023-12-20T14:04:51;22.40;;;4.82;;
20375;SDS011;10347;51.828;6.466;2023-12-20T14:07:17;18.77;;;5.18;;
20375;SDS011;10347;51.828;6.466;2023-12-20T14:09:43;16.58;;;3.97;;
20375;SDS011;10347;51.828;6.466;2023-12-20T14:12:10;16.15;;;4.80;;
20375;SDS011;10347;51.828;6.466;2023-12-20T14:14:36;16.27;;;4.95;;
20375;SDS011;10347;51.828;6.466;2023-12-20T14:17:01;13.27;;;3.80;;
20375;SDS011;10347;51.828;6.466;2023-12-20T14:19:27;14.43;;;4.00;;
20375;SDS011;10347;51.828;6.466;2023-12-20T14:21:53;22.13;;;4.88;;
20375;SDS011;10347;51.828;6.466;2023-12-20T14:24:18;13.75;;;4.15;;
20375;SDS011;10347;51.828;6.466;2023-12-20T14:26:44;11.25;;;3.95;;
20375;SDS011;10347;51.828;6.466;2023-12-20T14:29:09;15.15;;;4.28;;
20375;SDS011;10347;51.828;6.466;2023-12-20T14:31:35;15.52;;;4.53;;
20375;SDS011;10347;51.828;6.466;2023-12-20T14:34:03;21.05;;;5.55;;